ADDS METAR Data INFO
IDs: Format: Raw Decoded Include TAF

Data at: 0200 UTC 26 Apr 2017

METAR for:EBBE (Beauvechain(AB), --, BX)
Text:EBBE 260125Z AUTO 23006KT 9999 NCD 01/M03 Q1012 BLU
Temperature: 1.0°C ( 34°F)
Dewpoint: -3.0°C ( 27°F) [RH = 75%]
Pressure (altimeter):29.88 inches Hg (1012.0 mb)
Winds:from the SW (230 degrees) at 7 MPH (6 knots; 3.1 m/s)
Visibility:6 or more sm (10+ km)
Ceiling:at least 12,000 feet AGL
Clouds:sky clear below 12,000 feet AGL

TAF for:EBBE (Beauvechain(AB), --, BX) issued at 1541 UTC 25 Apr 2017
Text:TAF EBBE 251541Z 2519/2607 32007KT 9999 FEW035 SCT200
Forecast period:1900 to 2200 UTC 25 April 2017
Forecast type:FROM: standard forecast or significant change
Winds:from the NW (320 degrees) at 8 MPH (7 knots; 3.6 m/s)
Visibility:6 or more sm (10+ km)
Ceiling:at least 12,000 feet AGL
Clouds: few clouds at 3500 feet AGL, scattered clouds at 20000 feet AGL
Text:BECMG 2522/2524 26005KT
Forecast period:2200 UTC 25 April 2017 to 0700 UTC 26 April 2017
Forecast type:BECOMING: Conditions expected to become as follows by 0000 UTC 26 April 2017
Winds:from the W (260 degrees) at 6 MPH (5 knots; 2.6 m/s)
Visibility:6 or more sm (10+ km)
Ceiling:at least 12,000 feet AGL
Clouds: few clouds at 3500 feet AGL, scattered clouds at 20000 feet AGL


Page loaded:  02:00 UTC  |   07:00 PM Pacific  |   08:00 PM Mountain  |   09:00 PM Central  |   10:00 PM Eastern

 

ADVISORIES

FORECASTS

FORECASTS

OBSERVATIONS

USER TOOLS

ABOUT US